createdAt,value
2023-05-24T00:00:53.147Z,14.00
2023-05-24T00:03:21.619Z,13.90
2023-05-24T00:05:48.842Z,13.90
2023-05-24T00:08:16.352Z,13.90
2023-05-24T00:10:43.877Z,13.90
2023-05-24T00:13:11.051Z,13.90
2023-05-24T00:15:38.046Z,13.90
2023-05-24T00:18:05.232Z,13.90
2023-05-24T00:20:32.396Z,13.80
2023-05-24T00:22:59.531Z,13.90
2023-05-24T00:25:26.542Z,13.80
2023-05-24T00:27:53.554Z,13.80
2023-05-24T00:30:20.784Z,13.80
2023-05-24T00:32:48.242Z,13.80
2023-05-24T00:35:15.367Z,13.80
2023-05-24T00:37:45.110Z,13.70
2023-05-24T00:40:12.696Z,13.80
2023-05-24T00:42:39.723Z,13.70
2023-05-24T00:45:07.154Z,13.70
2023-05-24T00:47:36.011Z,13.70
2023-05-24T00:50:03.231Z,13.70
2023-05-24T00:52:30.790Z,13.60
2023-05-24T00:54:57.959Z,13.60
2023-05-24T00:57:25.068Z,13.70
2023-05-24T00:59:52.253Z,13.60
2023-05-24T01:02:19.412Z,13.60
2023-05-24T01:04:48.875Z,13.70
2023-05-24T01:07:18.863Z,13.70
2023-05-24T01:09:55.093Z,13.60
2023-05-24T01:12:40.837Z,13.60
2023-05-24T01:15:18.140Z,13.60
2023-05-24T01:18:05.866Z,13.60
2023-05-24T01:20:33.416Z,13.60
2023-05-24T01:23:09.580Z,13.60
2023-05-24T01:25:45.357Z,13.60
2023-05-24T01:28:12.529Z,13.50
2023-05-24T01:30:40.319Z,13.50
2023-05-24T01:33:07.557Z,13.50
2023-05-24T01:35:40.076Z,13.50
2023-05-24T01:38:07.279Z,13.50
2023-05-24T01:40:34.849Z,13.50
2023-05-24T01:43:15.320Z,13.50
2023-05-24T01:45:50.406Z,13.50
2023-05-24T01:48:24.816Z,13.50
2023-05-24T01:50:52.741Z,13.50
2023-05-24T01:53:19.949Z,13.50
2023-05-24T01:55:50.212Z,13.40
2023-05-24T01:58:17.670Z,13.40
2023-05-24T02:00:44.883Z,13.40
2023-05-24T02:03:13.368Z,13.30
2023-05-24T02:05:40.521Z,13.20
2023-05-24T02:08:07.614Z,13.20
2023-05-24T02:10:34.782Z,13.20
2023-05-24T02:13:01.860Z,13.20
2023-05-24T02:15:30.578Z,13.20
2023-05-24T02:17:58.291Z,13.20
2023-05-24T02:20:25.430Z,13.20
2023-05-24T02:22:52.480Z,13.20
2023-05-24T02:25:19.536Z,13.20
2023-05-24T02:27:47.778Z,13.20
2023-05-24T02:30:15.080Z,13.20
2023-05-24T02:32:42.161Z,13.20
2023-05-24T02:35:09.206Z,13.20
2023-05-24T02:37:36.284Z,13.20
2023-05-24T02:40:03.847Z,13.20
2023-05-24T02:42:30.884Z,13.20
2023-05-24T02:44:57.951Z,13.20
2023-05-24T02:47:26.765Z,13.20
2023-05-24T02:49:54.046Z,13.20
2023-05-24T02:52:22.732Z,13.20
2023-05-24T02:54:49.983Z,13.20
2023-05-24T02:57:19.316Z,13.10
2023-05-24T02:59:46.574Z,13.20
2023-05-24T03:02:13.751Z,13.10
2023-05-24T03:04:41.283Z,13.10
2023-05-24T03:07:11.155Z,13.10
2023-05-24T03:09:38.257Z,13.10
2023-05-24T03:12:05.845Z,13.10
2023-05-24T03:14:34.312Z,13.10
2023-05-24T03:17:02.109Z,13.10
2023-05-24T03:19:29.233Z,13.10
2023-05-24T03:21:57.541Z,13.10
2023-05-24T03:24:25.941Z,13.00
2023-05-24T03:26:53.046Z,13.10
2023-05-24T03:29:20.298Z,13.00
2023-05-24T03:31:47.654Z,13.00
2023-05-24T03:34:14.845Z,13.00
2023-05-24T03:36:43.328Z,13.00
2023-05-24T03:39:10.424Z,13.00
2023-05-24T03:41:53.675Z,13.00
2023-05-24T03:44:20.938Z,13.00
2023-05-24T03:46:47.984Z,12.90
2023-05-24T03:49:15.084Z,12.90
2023-05-24T03:51:42.123Z,12.80
2023-05-24T03:54:09.271Z,12.80
2023-05-24T03:56:36.791Z,12.80
2023-05-24T03:59:04.053Z,12.70
2023-05-24T04:01:36.465Z,12.70
2023-05-24T04:04:03.786Z,12.80
2023-05-24T04:06:31.137Z,12.80
2023-05-24T04:08:59.566Z,12.80
2023-05-24T04:11:29.743Z,12.70
2023-05-24T04:13:57.044Z,12.80
2023-05-24T04:16:24.474Z,12.80
2023-05-24T04:18:51.681Z,12.80
2023-05-24T04:21:18.869Z,12.70
2023-05-24T04:23:46.066Z,12.70
2023-05-24T04:26:14.062Z,12.70
2023-05-24T04:28:41.141Z,12.70
2023-05-24T04:31:09.775Z,12.70
2023-05-24T04:33:36.974Z,12.60
2023-05-24T04:36:04.072Z,12.60
2023-05-24T04:38:32.540Z,12.50
2023-05-24T04:40:59.703Z,12.50
2023-05-24T04:43:26.732Z,12.50
2023-05-24T04:45:56.676Z,12.50
2023-05-24T04:48:24.464Z,12.50
2023-05-24T04:50:52.378Z,12.50
2023-05-24T04:53:19.910Z,12.50
2023-05-24T04:55:47.482Z,12.50
2023-05-24T04:58:14.655Z,12.40
2023-05-24T05:00:41.838Z,12.40
2023-05-24T05:03:09.191Z,12.30
2023-05-24T05:05:36.383Z,12.20
2023-05-24T05:08:03.751Z,12.10
2023-05-24T05:10:30.950Z,12.20
2023-05-24T05:12:57.975Z,12.20
2023-05-24T05:15:25.273Z,12.20
2023-05-24T05:17:52.297Z,12.20
2023-05-24T05:20:19.521Z,12.20
2023-05-24T05:22:47.168Z,12.20
2023-05-24T05:25:14.179Z,12.20
2023-05-24T05:27:41.308Z,12.20
2023-05-24T05:30:08.686Z,12.20
2023-05-24T05:32:35.848Z,12.20
2023-05-24T05:35:03.093Z,12.20
2023-05-24T05:37:31.070Z,12.10
2023-05-24T05:39:58.092Z,12.00
2023-05-24T05:42:25.145Z,12.10
2023-05-24T05:44:52.770Z,12.10
2023-05-24T05:47:19.991Z,12.10
2023-05-24T05:49:47.039Z,12.00
2023-05-24T05:52:14.088Z,12.00
2023-05-24T05:54:41.169Z,12.00
2023-05-24T05:57:10.503Z,12.00
2023-05-24T05:59:38.182Z,12.10
2023-05-24T06:02:06.537Z,12.10
2023-05-24T06:04:34.032Z,12.10
2023-05-24T06:07:01.213Z,12.10
2023-05-24T06:09:28.325Z,12.20
2023-05-24T06:11:55.527Z,12.20
2023-05-24T06:14:24.874Z,12.20
2023-05-24T06:16:54.300Z,12.20
2023-05-24T06:19:21.704Z,12.30
2023-05-24T06:21:49.481Z,12.30
2023-05-24T06:24:22.699Z,12.40
2023-05-24T06:26:51.957Z,12.40
2023-05-24T06:29:22.516Z,12.40
2023-05-24T06:31:49.936Z,12.40
2023-05-24T06:34:18.839Z,12.50
2023-05-24T06:36:47.776Z,12.50
2023-05-24T06:39:14.969Z,12.60
2023-05-24T06:41:43.247Z,12.60
2023-05-24T06:44:10.424Z,12.60
2023-05-24T06:46:37.498Z,12.60
2023-05-24T06:49:04.713Z,12.60
2023-05-24T06:51:33.700Z,12.60
2023-05-24T06:54:00.956Z,12.60
2023-05-24T06:56:28.807Z,12.60
2023-05-24T06:58:56.315Z,12.70
2023-05-24T07:01:23.416Z,12.70
2023-05-24T07:03:50.554Z,12.70
2023-05-24T07:06:18.352Z,12.60
2023-05-24T07:08:45.411Z,12.60
2023-05-24T07:11:12.490Z,12.70
2023-05-24T07:13:39.554Z,12.80
2023-05-24T07:16:06.672Z,12.80
2023-05-24T07:18:33.759Z,12.80
2023-05-24T07:21:01.057Z,12.80
2023-05-24T07:23:28.294Z,12.80
2023-05-24T07:25:55.330Z,12.80
2023-05-24T07:28:22.408Z,12.90
2023-05-24T07:30:49.648Z,12.90
2023-05-24T07:33:17.015Z,12.90
2023-05-24T07:35:48.221Z,13.00
2023-05-24T07:38:15.265Z,12.90
2023-05-24T07:40:42.450Z,13.00
2023-05-24T07:43:09.728Z,13.00
2023-05-24T07:45:37.326Z,13.00
2023-05-24T07:48:04.382Z,13.00
2023-05-24T07:50:31.899Z,13.00
2023-05-24T07:52:58.909Z,13.10
2023-05-24T07:55:27.110Z,13.10
2023-05-24T07:57:54.126Z,13.10
2023-05-24T08:00:21.785Z,13.10
2023-05-24T08:02:49.048Z,13.10
2023-05-24T08:05:16.859Z,13.10
2023-05-24T08:07:44.006Z,13.10
2023-05-24T08:10:14.268Z,13.10
2023-05-24T08:12:42.022Z,13.10
2023-05-24T08:15:09.304Z,13.10
2023-05-24T08:17:36.863Z,13.20
2023-05-24T08:20:06.844Z,13.20
2023-05-24T08:22:33.942Z,13.20
2023-05-24T08:25:00.969Z,13.30
2023-05-24T08:27:30.419Z,13.30
2023-05-24T08:29:57.668Z,13.30
2023-05-24T08:32:24.847Z,13.30
2023-05-24T08:34:57.772Z,13.30
2023-05-24T08:37:28.310Z,13.30
2023-05-24T08:39:56.155Z,13.30
2023-05-24T08:42:23.185Z,13.30
2023-05-24T08:44:53.737Z,13.30
2023-05-24T08:47:21.762Z,13.20
2023-05-24T08:49:50.040Z,13.20
2023-05-24T08:52:17.544Z,13.20
2023-05-24T08:54:44.611Z,13.20
2023-05-24T08:57:14.588Z,13.10
2023-05-24T08:59:41.690Z,13.00
2023-05-24T09:02:13.855Z,13.00
2023-05-24T09:04:41.537Z,13.00
2023-05-24T09:07:08.539Z,13.10
2023-05-24T09:09:35.608Z,13.10
2023-05-24T09:12:04.359Z,13.10
2023-05-24T09:14:32.509Z,13.10
2023-05-24T09:16:59.519Z,13.10
2023-05-24T09:19:27.879Z,13.10
2023-05-24T09:21:54.986Z,13.10
2023-05-24T09:24:22.931Z,13.10
2023-05-24T09:26:50.924Z,13.10
2023-05-24T09:29:21.708Z,13.10
2023-05-24T09:31:48.835Z,13.20
2023-05-24T09:34:16.662Z,13.20
2023-05-24T09:36:45.778Z,13.20
2023-05-24T09:39:13.067Z,13.10
2023-05-24T09:41:41.562Z,13.20
2023-05-24T09:44:08.655Z,13.10
2023-05-24T09:46:36.267Z,13.10
2023-05-24T09:49:09.501Z,13.10
2023-05-24T09:51:37.173Z,13.10
2023-05-24T09:54:04.363Z,13.10
2023-05-24T09:56:32.824Z,13.10
2023-05-24T09:59:04.879Z,13.10
2023-05-24T10:01:33.875Z,13.10
2023-05-24T10:04:03.697Z,13.10
2023-05-24T10:06:35.089Z,13.10
2023-05-24T10:09:35.170Z,13.10
2023-05-24T10:12:06.398Z,13.10
2023-05-24T10:14:37.128Z,13.10
2023-05-24T10:17:07.828Z,13.00
2023-05-24T10:19:43.614Z,13.00
2023-05-24T10:22:11.123Z,12.90
2023-05-24T10:24:44.207Z,12.90
2023-05-24T10:27:13.448Z,12.90
2023-05-24T10:29:40.470Z,12.90
2023-05-24T10:32:07.519Z,12.90
2023-05-24T10:34:37.788Z,12.90
2023-05-24T10:37:04.923Z,12.90
2023-05-24T10:39:32.983Z,12.90
2023-05-24T10:42:04.828Z,12.90
2023-05-24T10:44:33.126Z,12.90
2023-05-24T10:47:13.162Z,13.00
2023-05-24T10:49:51.682Z,13.00
2023-05-24T10:52:18.763Z,13.00
2023-05-24T10:55:04.007Z,13.10
2023-05-24T10:57:35.036Z,13.00
2023-05-24T11:00:33.748Z,13.00
2023-05-24T11:03:09.077Z,13.00
2023-05-24T11:05:50.910Z,12.90
2023-05-24T11:08:25.782Z,12.90
2023-05-24T11:11:19.069Z,12.90
2023-05-24T11:13:55.833Z,12.90
2023-05-24T11:16:39.411Z,12.90
2023-05-24T11:19:18.021Z,13.00
2023-05-24T11:21:47.136Z,13.00
2023-05-24T11:24:17.382Z,13.00
2023-05-24T11:26:44.803Z,13.10
2023-05-24T11:29:17.946Z,13.10
2023-05-24T11:31:58.040Z,13.00
2023-05-24T11:34:27.105Z,13.10
2023-05-24T11:36:55.127Z,13.10
2023-05-24T11:39:23.409Z,13.10
2023-05-24T11:41:50.657Z,13.10
2023-05-24T11:44:19.170Z,13.10
2023-05-24T11:46:46.178Z,13.10
2023-05-24T11:49:14.016Z,13.20
2023-05-24T11:51:41.128Z,13.20
2023-05-24T11:54:08.335Z,13.20
2023-05-24T11:56:35.691Z,13.20
2023-05-24T11:59:16.079Z,13.30
2023-05-24T12:01:43.401Z,13.30
2023-05-24T12:04:10.882Z,13.30
2023-05-24T12:06:38.810Z,13.30
2023-05-24T12:09:08.469Z,13.40
2023-05-24T12:11:39.872Z,13.30
2023-05-24T12:14:07.679Z,13.30
2023-05-24T12:16:35.857Z,13.30
2023-05-24T12:19:07.206Z,13.30
2023-05-24T12:21:41.075Z,13.30
2023-05-24T12:24:09.450Z,13.30
2023-05-24T12:26:37.131Z,13.30
2023-05-24T12:29:04.763Z,13.30
2023-05-24T12:31:31.867Z,13.30
2023-05-24T12:33:58.958Z,13.40
2023-05-24T12:36:27.985Z,13.30
2023-05-24T12:38:56.940Z,13.30
2023-05-24T12:41:24.054Z,13.30
2023-05-24T12:43:51.143Z,13.30
2023-05-24T12:46:18.137Z,13.30
2023-05-24T12:48:45.444Z,13.30
2023-05-24T12:51:12.453Z,13.30
2023-05-24T12:53:39.474Z,13.30
2023-05-24T12:56:06.697Z,13.30
2023-05-24T12:58:33.749Z,13.30
2023-05-24T13:01:00.888Z,13.30
2023-05-24T13:03:30.801Z,13.30
2023-05-24T13:05:59.307Z,13.30
2023-05-24T13:08:28.589Z,13.30
2023-05-24T13:10:55.615Z,13.30
2023-05-24T13:13:24.455Z,13.30
2023-05-24T13:15:52.120Z,13.40
2023-05-24T13:18:19.365Z,13.40
2023-05-24T13:20:46.767Z,13.50
2023-05-24T13:23:14.227Z,13.50
2023-05-24T13:25:41.331Z,13.50
2023-05-24T13:28:08.741Z,13.50
2023-05-24T13:30:36.438Z,13.50
2023-05-24T13:33:04.058Z,13.50
2023-05-24T13:35:31.314Z,13.50
2023-05-24T13:37:58.550Z,13.50
2023-05-24T13:40:26.239Z,13.50
2023-05-24T13:42:57.334Z,13.50
2023-05-24T13:45:25.179Z,13.50
2023-05-24T13:47:53.743Z,13.50
2023-05-24T13:50:23.791Z,13.50
2023-05-24T13:52:51.139Z,13.60
2023-05-24T13:55:18.801Z,13.60
2023-05-24T13:57:51.868Z,13.60
2023-05-24T14:00:21.799Z,13.60
2023-05-24T14:02:52.296Z,13.60
2023-05-24T14:08:03.352Z,13.60
2023-05-24T14:10:31.188Z,13.60
2023-05-24T14:13:12.818Z,13.60
2023-05-24T14:15:46.726Z,13.60
2023-05-24T14:18:13.941Z,13.60
2023-05-24T14:20:41.164Z,13.60
2023-05-24T14:23:08.441Z,13.60
2023-05-24T14:25:35.722Z,13.60
2023-05-24T14:28:03.798Z,13.60
2023-05-24T14:30:31.888Z,13.70
2023-05-24T14:33:02.982Z,13.70
2023-05-24T14:35:30.048Z,13.80
2023-05-24T14:37:57.081Z,13.80
2023-05-24T14:40:24.270Z,13.80
2023-05-24T14:42:51.676Z,13.80
2023-05-24T14:45:18.927Z,13.80
2023-05-24T14:47:46.339Z,13.90
2023-05-24T14:50:13.415Z,13.90
2023-05-24T14:52:40.716Z,13.90
2023-05-24T14:55:08.166Z,13.90
2023-05-24T14:57:35.927Z,14.00
2023-05-24T15:00:03.444Z,14.00
2023-05-24T15:02:31.018Z,14.00
2023-05-24T15:04:58.247Z,14.10
2023-05-24T15:07:26.352Z,14.20
2023-05-24T15:09:53.628Z,14.30
2023-05-24T15:12:20.655Z,14.30
2023-05-24T15:14:48.032Z,14.30
2023-05-24T15:17:15.585Z,14.20
2023-05-24T15:19:42.865Z,14.20
2023-05-24T15:22:10.360Z,14.20
2023-05-24T15:24:37.808Z,14.30
2023-05-24T15:27:05.344Z,14.30
2023-05-24T15:29:32.545Z,14.30
2023-05-24T15:32:02.234Z,14.40
2023-05-24T15:34:29.636Z,14.40
2023-05-24T15:36:56.883Z,14.40
2023-05-24T15:39:24.180Z,14.50
2023-05-24T15:41:51.401Z,14.50
2023-05-24T15:44:18.439Z,14.60
2023-05-24T15:46:46.650Z,14.60
2023-05-24T15:49:13.853Z,14.60
2023-05-24T15:54:10.828Z,14.60
2023-05-24T15:56:37.892Z,14.60
2023-05-24T15:59:04.941Z,14.60
2023-05-24T16:01:32.009Z,14.60
2023-05-24T16:03:59.707Z,14.60
2023-05-24T16:06:26.811Z,14.60
2023-05-24T16:08:53.819Z,14.60
2023-05-24T16:11:22.029Z,14.60
2023-05-24T16:13:50.226Z,14.60
2023-05-24T16:16:17.331Z,14.70
2023-05-24T16:18:44.382Z,14.60
2023-05-24T16:21:11.519Z,14.70
2023-05-24T16:23:38.586Z,14.70
2023-05-24T16:26:05.631Z,14.70
2023-05-24T16:28:32.677Z,14.60
2023-05-24T16:31:02.334Z,14.70
2023-05-24T16:33:29.427Z,14.70
2023-05-24T16:35:56.614Z,14.70
2023-05-24T16:38:24.186Z,14.70
2023-05-24T16:40:54.395Z,14.70
2023-05-24T16:43:21.687Z,14.60
2023-05-24T16:45:48.927Z,14.70
2023-05-24T16:48:16.140Z,14.60
2023-05-24T16:50:43.446Z,14.50
2023-05-24T16:53:10.780Z,14.50
2023-05-24T16:55:37.805Z,14.60
2023-05-24T16:58:04.884Z,14.60
2023-05-24T17:00:31.977Z,14.50
2023-05-24T17:03:00.386Z,14.50
2023-05-24T17:05:27.669Z,14.50
2023-05-24T17:07:54.911Z,14.40
2023-05-24T17:10:21.927Z,14.30
2023-05-24T17:12:49.232Z,14.30
2023-05-24T17:15:16.294Z,14.30
2023-05-24T17:17:43.404Z,14.30
2023-05-24T17:20:10.676Z,14.20
2023-05-24T17:22:37.699Z,14.20
2023-05-24T17:25:05.066Z,14.20
2023-05-24T17:27:32.234Z,14.20
2023-05-24T17:29:59.241Z,14.20
2023-05-24T17:32:26.550Z,14.20
2023-05-24T17:34:53.602Z,14.10
2023-05-24T17:37:20.680Z,14.20
2023-05-24T17:39:52.061Z,14.20
2023-05-24T17:42:19.427Z,14.20
2023-05-24T17:44:46.438Z,14.20
2023-05-24T17:47:13.447Z,14.20
2023-05-24T17:49:40.546Z,14.10
2023-05-24T17:52:07.533Z,14.10
2023-05-24T17:54:34.595Z,14.20
2023-05-24T17:57:01.700Z,14.10
2023-05-24T17:59:28.721Z,14.10
2023-05-24T18:01:55.812Z,14.10
2023-05-24T18:04:22.890Z,14.10
2023-05-24T18:06:49.904Z,14.10
2023-05-24T18:09:16.935Z,14.00
2023-05-24T18:11:43.976Z,14.00
2023-05-24T18:14:11.154Z,14.00
2023-05-24T18:16:38.324Z,13.90
2023-05-24T18:19:05.611Z,13.90
2023-05-24T18:21:32.826Z,13.90
2023-05-24T18:23:59.832Z,13.90
2023-05-24T18:26:27.178Z,13.80
2023-05-24T18:28:54.468Z,13.80
2023-05-24T18:31:21.867Z,13.70
2023-05-24T18:33:49.108Z,13.70
2023-05-24T18:36:16.453Z,13.60
2023-05-24T18:38:47.029Z,13.60
2023-05-24T18:41:14.901Z,13.60
2023-05-24T18:43:42.922Z,13.50
2023-05-24T18:46:14.738Z,13.50
2023-05-24T18:48:42.234Z,13.40
2023-05-24T18:51:09.484Z,13.40
2023-05-24T18:53:36.616Z,13.30
2023-05-24T18:56:03.881Z,13.40
2023-05-24T18:58:31.367Z,13.30
2023-05-24T19:00:58.626Z,13.30
2023-05-24T19:03:25.890Z,13.30
2023-05-24T19:05:53.042Z,13.30
2023-05-24T19:08:20.165Z,13.30
2023-05-24T19:10:47.188Z,13.20
2023-05-24T19:13:14.494Z,13.20
2023-05-24T19:15:41.771Z,13.10
2023-05-24T19:18:09.010Z,13.10
2023-05-24T19:20:36.203Z,13.00
2023-05-24T19:23:03.328Z,13.00
2023-05-24T19:25:31.242Z,13.00
2023-05-24T19:28:00.459Z,12.90
2023-05-24T19:30:27.882Z,12.90
2023-05-24T19:32:55.039Z,12.90
2023-05-24T19:35:22.263Z,12.80
2023-05-24T19:37:49.451Z,12.70
2023-05-24T19:40:16.585Z,12.70
2023-05-24T19:42:43.641Z,12.70
2023-05-24T19:45:11.937Z,12.70
2023-05-24T19:47:39.648Z,12.70
2023-05-24T19:50:07.107Z,12.60
2023-05-24T19:52:34.151Z,12.60
2023-05-24T19:55:01.212Z,12.60
2023-05-24T19:57:28.243Z,12.60
2023-05-24T19:59:55.417Z,12.60
2023-05-24T20:02:22.506Z,12.60
2023-05-24T20:04:49.681Z,12.50
2023-05-24T20:07:16.679Z,12.50
2023-05-24T20:09:43.814Z,12.50
2023-05-24T20:12:11.840Z,12.60
2023-05-24T20:14:38.940Z,12.50
2023-05-24T20:17:06.083Z,12.50
2023-05-24T20:19:33.124Z,12.50
2023-05-24T20:22:00.181Z,12.50
2023-05-24T20:24:27.215Z,12.50
2023-05-24T20:26:54.254Z,12.40
2023-05-24T20:29:21.483Z,12.40
2023-05-24T20:31:48.617Z,12.30
2023-05-24T20:34:15.676Z,12.30
2023-05-24T20:36:43.856Z,12.30
2023-05-24T20:39:11.548Z,12.40
2023-05-24T20:41:38.681Z,12.40
2023-05-24T20:44:05.733Z,12.30
2023-05-24T20:46:32.774Z,12.30
2023-05-24T20:48:59.834Z,12.30
2023-05-24T20:51:26.857Z,12.30
2023-05-24T20:53:53.974Z,12.30
2023-05-24T20:56:22.826Z,12.30
2023-05-24T20:58:52.701Z,12.20
2023-05-24T21:01:20.178Z,12.20
2023-05-24T21:03:47.293Z,12.20
2023-05-24T21:06:14.432Z,12.20
2023-05-24T21:08:42.061Z,12.20
2023-05-24T21:11:09.084Z,12.10
2023-05-24T21:13:36.109Z,12.10
2023-05-24T21:16:03.231Z,12.00
2023-05-24T21:18:30.364Z,12.00
2023-05-24T21:20:57.380Z,12.00
2023-05-24T21:23:24.500Z,12.00
2023-05-24T21:25:51.579Z,12.00
2023-05-24T21:28:18.612Z,12.00
2023-05-24T21:30:45.764Z,12.00
2023-05-24T21:33:12.898Z,12.00
2023-05-24T21:35:39.937Z,12.00
2023-05-24T21:38:06.952Z,12.00
2023-05-24T21:40:34.010Z,12.00
2023-05-24T21:43:01.069Z,12.00
2023-05-24T21:45:28.157Z,12.00
2023-05-24T21:47:55.221Z,12.00
2023-05-24T21:50:22.378Z,12.00
2023-05-24T21:52:49.390Z,12.00
2023-05-24T21:55:16.434Z,12.00
2023-05-24T21:57:43.511Z,11.90
2023-05-24T22:00:11.813Z,11.90
2023-05-24T22:02:38.998Z,11.90
2023-05-24T22:05:06.146Z,11.90
2023-05-24T22:07:33.232Z,11.90
2023-05-24T22:10:00.250Z,11.90
2023-05-24T22:12:27.307Z,11.90
2023-05-24T22:14:54.377Z,11.90
2023-05-24T22:17:21.943Z,11.90
2023-05-24T22:19:49.026Z,11.90
2023-05-24T22:22:19.467Z,11.90
2023-05-24T22:24:47.152Z,11.80
2023-05-24T22:27:14.252Z,11.80
2023-05-24T22:29:41.307Z,11.80
2023-05-24T22:32:08.492Z,11.80
2023-05-24T22:34:35.744Z,11.80
2023-05-24T22:37:02.785Z,11.80
2023-05-24T22:39:29.824Z,11.80
2023-05-24T22:41:56.856Z,11.80
2023-05-24T22:44:23.934Z,11.80
2023-05-24T22:46:53.560Z,11.80
2023-05-24T22:49:20.929Z,11.80
2023-05-24T22:51:48.609Z,11.80
2023-05-24T22:54:16.183Z,11.80
2023-05-24T22:56:43.456Z,11.80
2023-05-24T22:59:10.721Z,11.70
2023-05-24T23:01:37.860Z,11.70
2023-05-24T23:04:19.490Z,11.70
2023-05-24T23:06:47.403Z,11.70
2023-05-24T23:09:14.434Z,11.70
2023-05-24T23:11:42.658Z,11.60
2023-05-24T23:14:11.231Z,11.60
2023-05-24T23:16:45.072Z,11.60
2023-05-24T23:19:17.992Z,11.60
2023-05-24T23:21:45.045Z,11.60
2023-05-24T23:24:14.396Z,11.50
2023-05-24T23:26:41.772Z,11.50
2023-05-24T23:29:08.957Z,11.50
2023-05-24T23:31:36.207Z,11.50
2023-05-24T23:34:03.787Z,11.50
2023-05-24T23:36:31.162Z,11.50
2023-05-24T23:38:58.191Z,11.50
2023-05-24T23:41:26.313Z,11.50
2023-05-24T23:43:53.418Z,11.50
2023-05-24T23:46:20.615Z,11.40
2023-05-24T23:48:47.742Z,11.50
2023-05-24T23:51:14.788Z,11.50
2023-05-24T23:53:41.822Z,11.40
2023-05-24T23:56:08.836Z,11.40
2023-05-24T23:58:37.633Z,11.40
